sensor_id;sensor_type;location;lat;lon;timestamp;P1;durP1;ratioP1;P2;durP2;ratioP2
47219;SDS011;32961;51.936;4.788;2023-04-06T00:01:54;13.82;;;8.90;;
47219;SDS011;32961;51.936;4.788;2023-04-06T00:04:23;18.90;;;9.40;;
47219;SDS011;32961;51.936;4.788;2023-04-06T00:06:51;15.40;;;9.40;;
47219;SDS011;32961;51.936;4.788;2023-04-06T00:09:19;17.75;;;10.25;;
47219;SDS011;32961;51.936;4.788;2023-04-06T00:11:47;16.67;;;9.70;;
47219;SDS011;32961;51.936;4.788;2023-04-06T00:14:15;16.83;;;10.13;;
47219;SDS011;32961;51.936;4.788;2023-04-06T00:16:43;18.50;;;10.02;;
47219;SDS011;32961;51.936;4.788;2023-04-06T00:19:11;16.55;;;8.98;;
47219;SDS011;32961;51.936;4.788;2023-04-06T00:21:41;17.80;;;9.85;;
47219;SDS011;32961;51.936;4.788;2023-04-06T00:24:08;23.88;;;10.65;;
47219;SDS011;32961;51.936;4.788;2023-04-06T00:26:36;18.15;;;9.63;;
47219;SDS011;32961;51.936;4.788;2023-04-06T00:29:04;19.10;;;9.75;;
47219;SDS011;32961;51.936;4.788;2023-04-06T00:31:32;15.55;;;9.93;;
47219;SDS011;32961;51.936;4.788;2023-04-06T00:34:00;19.60;;;10.73;;
47219;SDS011;32961;51.936;4.788;2023-04-06T00:36:28;21.02;;;10.88;;
47219;SDS011;32961;51.936;4.788;2023-04-06T00:38:57;18.50;;;10.15;;
47219;SDS011;32961;51.936;4.788;2023-04-06T00:41:25;21.58;;;9.93;;
47219;SDS011;32961;51.936;4.788;2023-04-06T00:43:53;15.45;;;10.40;;
47219;SDS011;32961;51.936;4.788;2023-04-06T00:46:21;22.13;;;10.57;;
47219;SDS011;32961;51.936;4.788;2023-04-06T00:48:50;18.23;;;9.73;;
47219;SDS011;32961;51.936;4.788;2023-04-06T00:51:18;20.23;;;10.40;;
47219;SDS011;32961;51.936;4.788;2023-04-06T00:53:46;18.67;;;10.35;;
47219;SDS011;32961;51.936;4.788;2023-04-06T00:56:15;17.63;;;9.48;;
47219;SDS011;32961;51.936;4.788;2023-04-06T00:58:43;17.83;;;10.60;;
47219;SDS011;32961;51.936;4.788;2023-04-06T01:01:11;17.15;;;10.20;;
47219;SDS011;32961;51.936;4.788;2023-04-06T01:03:38;18.05;;;10.38;;
47219;SDS011;32961;51.936;4.788;2023-04-06T01:06:08;18.98;;;10.75;;
47219;SDS011;32961;51.936;4.788;2023-04-06T01:08:36;16.08;;;10.65;;
47219;SDS011;32961;51.936;4.788;2023-04-06T01:11:04;18.30;;;10.48;;
47219;SDS011;32961;51.936;4.788;2023-04-06T01:13:33;17.27;;;10.27;;
47219;SDS011;32961;51.936;4.788;2023-04-06T01:16:01;18.27;;;10.95;;
47219;SDS011;32961;51.936;4.788;2023-04-06T01:18:29;20.85;;;10.63;;
47219;SDS011;32961;51.936;4.788;2023-04-06T01:20:57;18.10;;;10.45;;
47219;SDS011;32961;51.936;4.788;2023-04-06T01:23:27;18.35;;;10.45;;
47219;SDS011;32961;51.936;4.788;2023-04-06T01:25:55;16.85;;;9.88;;
47219;SDS011;32961;51.936;4.788;2023-04-06T01:28:22;22.42;;;11.20;;
47219;SDS011;32961;51.936;4.788;2023-04-06T01:30:50;16.73;;;10.82;;
47219;SDS011;32961;51.936;4.788;2023-04-06T01:33:18;17.80;;;10.25;;
47219;SDS011;32961;51.936;4.788;2023-04-06T01:35:46;18.52;;;10.55;;
47219;SDS011;32961;51.936;4.788;2023-04-06T01:38:14;17.17;;;10.23;;
47219;SDS011;32961;51.936;4.788;2023-04-06T01:40:43;16.38;;;10.07;;
47219;SDS011;32961;51.936;4.788;2023-04-06T01:43:11;19.67;;;9.98;;
47219;SDS011;32961;51.936;4.788;2023-04-06T01:45:39;17.02;;;9.80;;
47219;SDS011;32961;51.936;4.788;2023-04-06T01:48:07;15.77;;;10.43;;
47219;SDS011;32961;51.936;4.788;2023-04-06T01:50:35;19.95;;;10.02;;
47219;SDS011;32961;51.936;4.788;2023-04-06T01:53:03;17.17;;;9.90;;
47219;SDS011;32961;51.936;4.788;2023-04-06T01:55:30;17.27;;;10.57;;
47219;SDS011;32961;51.936;4.788;2023-04-06T01:58:00;20.20;;;11.02;;
47219;SDS011;32961;51.936;4.788;2023-04-06T02:00:27;21.33;;;11.40;;
47219;SDS011;32961;51.936;4.788;2023-04-06T02:02:55;17.00;;;10.25;;
47219;SDS011;32961;51.936;4.788;2023-04-06T02:05:24;19.85;;;11.30;;
47219;SDS011;32961;51.936;4.788;2023-04-06T02:07:52;15.93;;;10.80;;
47219;SDS011;32961;51.936;4.788;2023-04-06T02:10:20;19.85;;;10.82;;
47219;SDS011;32961;51.936;4.788;2023-04-06T02:12:48;19.30;;;11.70;;
47219;SDS011;32961;51.936;4.788;2023-04-06T02:15:17;20.38;;;11.63;;
47219;SDS011;32961;51.936;4.788;2023-04-06T02:17:45;18.85;;;12.30;;
47219;SDS011;32961;51.936;4.788;2023-04-06T02:20:13;18.65;;;10.32;;
47219;SDS011;32961;51.936;4.788;2023-04-06T02:22:41;19.20;;;12.35;;
47219;SDS011;32961;51.936;4.788;2023-04-06T02:25:09;18.50;;;11.35;;
47219;SDS011;32961;51.936;4.788;2023-04-06T02:27:37;17.90;;;11.38;;
47219;SDS011;32961;51.936;4.788;2023-04-06T02:30:05;19.88;;;12.00;;
47219;SDS011;32961;51.936;4.788;2023-04-06T02:32:35;19.40;;;11.55;;
47219;SDS011;32961;51.936;4.788;2023-04-06T02:35:03;21.02;;;11.55;;
47219;SDS011;32961;51.936;4.788;2023-04-06T02:37:32;20.05;;;11.98;;
47219;SDS011;32961;51.936;4.788;2023-04-06T02:40:00;19.40;;;11.50;;
47219;SDS011;32961;51.936;4.788;2023-04-06T02:42:27;22.42;;;12.68;;
47219;SDS011;32961;51.936;4.788;2023-04-06T02:44:55;17.02;;;10.30;;
47219;SDS011;32961;51.936;4.788;2023-04-06T02:47:23;18.10;;;11.10;;
47219;SDS011;32961;51.936;4.788;2023-04-06T02:49:52;20.83;;;11.68;;
47219;SDS011;32961;51.936;4.788;2023-04-06T02:52:20;19.00;;;10.88;;
47219;SDS011;32961;51.936;4.788;2023-04-06T02:54:48;17.50;;;11.20;;
47219;SDS011;32961;51.936;4.788;2023-04-06T02:57:17;18.52;;;11.82;;
47219;SDS011;32961;51.936;4.788;2023-04-06T02:59:45;18.13;;;11.65;;
47219;SDS011;32961;51.936;4.788;2023-04-06T03:02:13;16.88;;;11.23;;
47219;SDS011;32961;51.936;4.788;2023-04-06T03:04:41;20.00;;;12.10;;
47219;SDS011;32961;51.936;4.788;2023-04-06T03:07:10;16.08;;;11.05;;
47219;SDS011;32961;51.936;4.788;2023-04-06T03:09:38;18.67;;;11.40;;
47219;SDS011;32961;51.936;4.788;2023-04-06T03:12:06;20.02;;;12.77;;
47219;SDS011;32961;51.936;4.788;2023-04-06T03:14:35;21.08;;;11.73;;
47219;SDS011;32961;51.936;4.788;2023-04-06T03:17:03;22.35;;;12.00;;
47219;SDS011;32961;51.936;4.788;2023-04-06T03:19:31;21.63;;;13.27;;
47219;SDS011;32961;51.936;4.788;2023-04-06T03:21:59;19.67;;;12.50;;
47219;SDS011;32961;51.936;4.788;2023-04-06T03:24:28;24.10;;;12.52;;
47219;SDS011;32961;51.936;4.788;2023-04-06T03:26:56;19.88;;;13.07;;
47219;SDS011;32961;51.936;4.788;2023-04-06T03:29:23;20.83;;;13.00;;
47219;SDS011;32961;51.936;4.788;2023-04-06T03:31:51;21.52;;;13.15;;
47219;SDS011;32961;51.936;4.788;2023-04-06T03:34:19;22.17;;;12.90;;
47219;SDS011;32961;51.936;4.788;2023-04-06T03:36:47;24.83;;;13.70;;
47219;SDS011;32961;51.936;4.788;2023-04-06T03:39:33;20.35;;;13.18;;
47219;SDS011;32961;51.936;4.788;2023-04-06T03:42:01;21.88;;;13.65;;
47219;SDS011;32961;51.936;4.788;2023-04-06T03:44:29;19.70;;;12.60;;
47219;SDS011;32961;51.936;4.788;2023-04-06T03:46:57;21.92;;;12.75;;
47219;SDS011;32961;51.936;4.788;2023-04-06T03:49:25;20.88;;;13.73;;
47219;SDS011;32961;51.936;4.788;2023-04-06T03:51:52;23.35;;;14.02;;
47219;SDS011;32961;51.936;4.788;2023-04-06T03:54:20;22.00;;;13.80;;
47219;SDS011;32961;51.936;4.788;2023-04-06T03:56:49;23.95;;;14.10;;
47219;SDS011;32961;51.936;4.788;2023-04-06T03:59:17;27.58;;;14.23;;
47219;SDS011;32961;51.936;4.788;2023-04-06T04:01:45;28.13;;;14.75;;
47219;SDS011;32961;51.936;4.788;2023-04-06T04:04:13;26.08;;;13.73;;
47219;SDS011;32961;51.936;4.788;2023-04-06T04:06:41;26.05;;;14.43;;
47219;SDS011;32961;51.936;4.788;2023-04-06T04:09:09;21.75;;;12.95;;
47219;SDS011;32961;51.936;4.788;2023-04-06T04:11:37;22.08;;;13.70;;
47219;SDS011;32961;51.936;4.788;2023-04-06T04:14:06;23.40;;;14.63;;
47219;SDS011;32961;51.936;4.788;2023-04-06T04:16:34;28.15;;;14.80;;
47219;SDS011;32961;51.936;4.788;2023-04-06T04:19:02;24.85;;;14.40;;
47219;SDS011;32961;51.936;4.788;2023-04-06T04:21:31;35.53;;;15.82;;
47219;SDS011;32961;51.936;4.788;2023-04-06T04:23:59;26.23;;;13.88;;
47219;SDS011;32961;51.936;4.788;2023-04-06T04:26:27;30.13;;;14.35;;
47219;SDS011;32961;51.936;4.788;2023-04-06T04:28:54;27.40;;;14.30;;
47219;SDS011;32961;51.936;4.788;2023-04-06T04:31:24;27.88;;;14.32;;
47219;SDS011;32961;51.936;4.788;2023-04-06T04:33:52;23.55;;;14.27;;
47219;SDS011;32961;51.936;4.788;2023-04-06T04:36:19;25.13;;;14.70;;
47219;SDS011;32961;51.936;4.788;2023-04-06T04:38:47;28.77;;;14.32;;
47219;SDS011;32961;51.936;4.788;2023-04-06T04:41:15;28.95;;;14.88;;
47219;SDS011;32961;51.936;4.788;2023-04-06T04:43:43;32.30;;;15.23;;
47219;SDS011;32961;51.936;4.788;2023-04-06T04:46:11;31.73;;;17.88;;
47219;SDS011;32961;51.936;4.788;2023-04-06T04:48:41;40.47;;;20.70;;
47219;SDS011;32961;51.936;4.788;2023-04-06T04:51:09;28.08;;;16.75;;
47219;SDS011;32961;51.936;4.788;2023-04-06T04:53:36;32.42;;;14.85;;
47219;SDS011;32961;51.936;4.788;2023-04-06T04:56:04;30.17;;;15.43;;
47219;SDS011;32961;51.936;4.788;2023-04-06T04:58:32;34.97;;;14.95;;
47219;SDS011;32961;51.936;4.788;2023-04-06T05:01:00;26.80;;;15.02;;
47219;SDS011;32961;51.936;4.788;2023-04-06T05:03:28;29.20;;;15.15;;
47219;SDS011;32961;51.936;4.788;2023-04-06T05:05:58;24.98;;;15.73;;
47219;SDS011;32961;51.936;4.788;2023-04-06T05:08:25;26.98;;;15.35;;
47219;SDS011;32961;51.936;4.788;2023-04-06T05:10:53;30.73;;;17.20;;
47219;SDS011;32961;51.936;4.788;2023-04-06T05:13:21;36.55;;;16.08;;
47219;SDS011;32961;51.936;4.788;2023-04-06T05:15:49;28.02;;;15.98;;
47219;SDS011;32961;51.936;4.788;2023-04-06T05:18:17;28.00;;;16.40;;
47219;SDS011;32961;51.936;4.788;2023-04-06T05:20:46;30.48;;;17.98;;
47219;SDS011;32961;51.936;4.788;2023-04-06T05:23:16;29.65;;;17.50;;
47219;SDS011;32961;51.936;4.788;2023-04-06T05:25:43;26.15;;;16.23;;
47219;SDS011;32961;51.936;4.788;2023-04-06T05:28:11;45.78;;;23.55;;
47219;SDS011;32961;51.936;4.788;2023-04-06T05:30:40;35.25;;;16.23;;
47219;SDS011;32961;51.936;4.788;2023-04-06T05:33:09;26.20;;;16.05;;
47219;SDS011;32961;51.936;4.788;2023-04-06T05:35:37;23.58;;;14.65;;
47219;SDS011;32961;51.936;4.788;2023-04-06T05:38:07;24.38;;;15.82;;
47219;SDS011;32961;51.936;4.788;2023-04-06T05:40:37;29.88;;;15.75;;
47219;SDS011;32961;51.936;4.788;2023-04-06T05:43:07;33.60;;;16.90;;
47219;SDS011;32961;51.936;4.788;2023-04-06T05:45:35;31.08;;;16.35;;
47219;SDS011;32961;51.936;4.788;2023-04-06T05:48:03;28.38;;;15.65;;
47219;SDS011;32961;51.936;4.788;2023-04-06T05:50:31;27.90;;;15.98;;
47219;SDS011;32961;51.936;4.788;2023-04-06T05:52:58;27.35;;;16.40;;
47219;SDS011;32961;51.936;4.788;2023-04-06T05:55:26;28.60;;;16.13;;
47219;SDS011;32961;51.936;4.788;2023-04-06T05:57:56;29.15;;;16.58;;
47219;SDS011;32961;51.936;4.788;2023-04-06T06:00:24;31.48;;;16.27;;
47219;SDS011;32961;51.936;4.788;2023-04-06T06:02:52;29.95;;;15.30;;
47219;SDS011;32961;51.936;4.788;2023-04-06T06:05:20;30.98;;;15.43;;
47219;SDS011;32961;51.936;4.788;2023-04-06T06:07:48;31.83;;;15.77;;
47219;SDS011;32961;51.936;4.788;2023-04-06T06:10:16;29.05;;;16.13;;
47219;SDS011;32961;51.936;4.788;2023-04-06T06:12:44;27.98;;;15.35;;
47219;SDS011;32961;51.936;4.788;2023-04-06T06:15:13;24.70;;;15.85;;
47219;SDS011;32961;51.936;4.788;2023-04-06T06:17:41;27.98;;;15.15;;
47219;SDS011;32961;51.936;4.788;2023-04-06T06:20:09;31.45;;;16.00;;
47219;SDS011;32961;51.936;4.788;2023-04-06T06:22:38;25.63;;;15.95;;
47219;SDS011;32961;51.936;4.788;2023-04-06T06:25:06;24.23;;;15.15;;
47219;SDS011;32961;51.936;4.788;2023-04-06T06:27:35;24.30;;;15.68;;
47219;SDS011;32961;51.936;4.788;2023-04-06T06:30:03;41.33;;;17.70;;
47219;SDS011;32961;51.936;4.788;2023-04-06T06:32:33;38.60;;;18.25;;
47219;SDS011;32961;51.936;4.788;2023-04-06T06:35:01;29.38;;;16.77;;
47219;SDS011;32961;51.936;4.788;2023-04-06T06:37:29;33.75;;;15.63;;
47219;SDS011;32961;51.936;4.788;2023-04-06T06:39:56;25.83;;;15.95;;
47219;SDS011;32961;51.936;4.788;2023-04-06T06:42:24;25.77;;;16.75;;
47219;SDS011;32961;51.936;4.788;2023-04-06T06:44:53;27.08;;;16.08;;
47219;SDS011;32961;51.936;4.788;2023-04-06T06:47:21;30.23;;;16.67;;
47219;SDS011;32961;51.936;4.788;2023-04-06T06:49:51;29.60;;;15.88;;
47219;SDS011;32961;51.936;4.788;2023-04-06T06:52:19;25.52;;;15.75;;
47219;SDS011;32961;51.936;4.788;2023-04-06T06:54:47;25.23;;;16.50;;
47219;SDS011;32961;51.936;4.788;2023-04-06T06:57:15;27.90;;;16.83;;
47219;SDS011;32961;51.936;4.788;2023-04-06T06:59:43;26.73;;;15.93;;
47219;SDS011;32961;51.936;4.788;2023-04-06T07:02:11;25.80;;;16.60;;
47219;SDS011;32961;51.936;4.788;2023-04-06T07:04:39;35.63;;;19.25;;
47219;SDS011;32961;51.936;4.788;2023-04-06T07:07:08;28.98;;;18.38;;
47219;SDS011;32961;51.936;4.788;2023-04-06T07:09:36;33.25;;;17.50;;
47219;SDS011;32961;51.936;4.788;2023-04-06T07:12:04;35.05;;;17.67;;
47219;SDS011;32961;51.936;4.788;2023-04-06T07:14:32;27.98;;;15.45;;
47219;SDS011;32961;51.936;4.788;2023-04-06T07:17:00;31.80;;;17.73;;
47219;SDS011;32961;51.936;4.788;2023-04-06T07:19:28;36.80;;;20.20;;
47219;SDS011;32961;51.936;4.788;2023-04-06T07:21:56;29.48;;;17.23;;
47219;SDS011;32961;51.936;4.788;2023-04-06T07:24:25;31.08;;;16.95;;
47219;SDS011;32961;51.936;4.788;2023-04-06T07:26:53;33.55;;;17.85;;
47219;SDS011;32961;51.936;4.788;2023-04-06T07:29:22;26.70;;;16.83;;
47219;SDS011;32961;51.936;4.788;2023-04-06T07:31:50;31.65;;;17.25;;
47219;SDS011;32961;51.936;4.788;2023-04-06T07:34:18;28.55;;;17.70;;
47219;SDS011;32961;51.936;4.788;2023-04-06T07:36:46;30.10;;;18.35;;
47219;SDS011;32961;51.936;4.788;2023-04-06T07:39:14;28.83;;;17.38;;
47219;SDS011;32961;51.936;4.788;2023-04-06T07:41:43;34.05;;;18.73;;
47219;SDS011;32961;51.936;4.788;2023-04-06T07:44:11;35.13;;;20.42;;
47219;SDS011;32961;51.936;4.788;2023-04-06T07:46:39;35.08;;;19.10;;
47219;SDS011;32961;51.936;4.788;2023-04-06T07:49:07;37.33;;;20.52;;
47219;SDS011;32961;51.936;4.788;2023-04-06T07:51:35;35.67;;;19.60;;
47219;SDS011;32961;51.936;4.788;2023-04-06T07:54:04;39.47;;;23.45;;
47219;SDS011;32961;51.936;4.788;2023-04-06T07:56:32;34.53;;;20.38;;
47219;SDS011;32961;51.936;4.788;2023-04-06T07:59:02;35.10;;;19.20;;
47219;SDS011;32961;51.936;4.788;2023-04-06T08:01:30;34.67;;;19.52;;
47219;SDS011;32961;51.936;4.788;2023-04-06T08:03:58;37.70;;;21.40;;
47219;SDS011;32961;51.936;4.788;2023-04-06T08:06:28;32.65;;;19.73;;
47219;SDS011;32961;51.936;4.788;2023-04-06T08:08:56;36.22;;;19.75;;
47219;SDS011;32961;51.936;4.788;2023-04-06T08:11:24;32.10;;;20.58;;
47219;SDS011;32961;51.936;4.788;2023-04-06T08:13:53;33.88;;;20.23;;
47219;SDS011;32961;51.936;4.788;2023-04-06T08:16:23;38.28;;;20.05;;
47219;SDS011;32961;51.936;4.788;2023-04-06T08:18:51;33.35;;;19.98;;
47219;SDS011;32961;51.936;4.788;2023-04-06T08:21:19;32.55;;;19.23;;
47219;SDS011;32961;51.936;4.788;2023-04-06T08:23:47;29.42;;;19.40;;
47219;SDS011;32961;51.936;4.788;2023-04-06T08:26:14;35.72;;;20.77;;
47219;SDS011;32961;51.936;4.788;2023-04-06T08:28:42;32.92;;;19.63;;
47219;SDS011;32961;51.936;4.788;2023-04-06T08:31:12;33.53;;;19.85;;
47219;SDS011;32961;51.936;4.788;2023-04-06T08:33:41;42.53;;;21.33;;
47219;SDS011;32961;51.936;4.788;2023-04-06T08:36:10;32.42;;;20.65;;
47219;SDS011;32961;51.936;4.788;2023-04-06T08:38:39;38.83;;;22.27;;
47219;SDS011;32961;51.936;4.788;2023-04-06T08:41:09;40.83;;;21.98;;
47219;SDS011;32961;51.936;4.788;2023-04-06T08:43:40;39.00;;;23.00;;
47219;SDS011;32961;51.936;4.788;2023-04-06T08:46:11;46.70;;;23.67;;
47219;SDS011;32961;51.936;4.788;2023-04-06T08:48:39;45.95;;;24.08;;
47219;SDS011;32961;51.936;4.788;2023-04-06T08:51:10;47.45;;;25.02;;
47219;SDS011;32961;51.936;4.788;2023-04-06T08:53:39;49.55;;;24.08;;
47219;SDS011;32961;51.936;4.788;2023-04-06T08:56:07;49.05;;;24.98;;
47219;SDS011;32961;51.936;4.788;2023-04-06T08:58:38;47.20;;;23.27;;
47219;SDS011;32961;51.936;4.788;2023-04-06T09:01:08;46.85;;;22.67;;
47219;SDS011;32961;51.936;4.788;2023-04-06T09:03:39;36.17;;;20.70;;
47219;SDS011;32961;51.936;4.788;2023-04-06T09:06:09;39.45;;;20.05;;
47219;SDS011;32961;51.936;4.788;2023-04-06T09:08:39;41.38;;;19.60;;
47219;SDS011;32961;51.936;4.788;2023-04-06T09:11:08;34.92;;;18.92;;
47219;SDS011;32961;51.936;4.788;2023-04-06T09:13:45;28.75;;;16.90;;
47219;SDS011;32961;51.936;4.788;2023-04-06T09:16:14;33.67;;;15.88;;
47219;SDS011;32961;51.936;4.788;2023-04-06T09:18:43;38.88;;;17.90;;
47219;SDS011;32961;51.936;4.788;2023-04-06T09:21:12;30.85;;;15.48;;
47219;SDS011;32961;51.936;4.788;2023-04-06T09:23:43;28.75;;;15.15;;
47219;SDS011;32961;51.936;4.788;2023-04-06T09:26:12;24.05;;;13.52;;
47219;SDS011;32961;51.936;4.788;2023-04-06T09:28:41;17.50;;;10.77;;
47219;SDS011;32961;51.936;4.788;2023-04-06T09:31:10;19.55;;;10.63;;
47219;SDS011;32961;51.936;4.788;2023-04-06T09:33:38;23.70;;;10.75;;
47219;SDS011;32961;51.936;4.788;2023-04-06T09:36:07;15.27;;;8.65;;
47219;SDS011;32961;51.936;4.788;2023-04-06T09:38:38;17.42;;;9.52;;
47219;SDS011;32961;51.936;4.788;2023-04-06T09:41:06;14.85;;;8.80;;
47219;SDS011;32961;51.936;4.788;2023-04-06T09:43:34;11.23;;;7.10;;
47219;SDS011;32961;51.936;4.788;2023-04-06T09:46:02;16.90;;;10.05;;
47219;SDS011;32961;51.936;4.788;2023-04-06T09:48:31;11.68;;;7.20;;
47219;SDS011;32961;51.936;4.788;2023-04-06T09:51:03;11.70;;;6.70;;
47219;SDS011;32961;51.936;4.788;2023-04-06T09:53:32;12.45;;;6.30;;
47219;SDS011;32961;51.936;4.788;2023-04-06T09:56:06;9.77;;;6.00;;
47219;SDS011;32961;51.936;4.788;2023-04-06T10:01:09;8.13;;;5.40;;
47219;SDS011;32961;51.936;4.788;2023-04-06T10:03:41;13.05;;;6.38;;
47219;SDS011;32961;51.936;4.788;2023-04-06T10:06:18;8.90;;;5.68;;
47219;SDS011;32961;51.936;4.788;2023-04-06T10:08:51;10.25;;;6.07;;
47219;SDS011;32961;51.936;4.788;2023-04-06T10:11:23;9.38;;;5.70;;
47219;SDS011;32961;51.936;4.788;2023-04-06T10:13:51;7.45;;;5.82;;
47219;SDS011;32961;51.936;4.788;2023-04-06T10:16:19;11.55;;;6.10;;
47219;SDS011;32961;51.936;4.788;2023-04-06T10:18:49;12.50;;;6.72;;
47219;SDS011;32961;51.936;4.788;2023-04-06T10:23:54;10.02;;;6.57;;
47219;SDS011;32961;51.936;4.788;2023-04-06T10:26:26;12.85;;;7.40;;
47219;SDS011;32961;51.936;4.788;2023-04-06T10:28:54;15.82;;;9.02;;
47219;SDS011;32961;51.936;4.788;2023-04-06T10:31:26;13.10;;;7.78;;
47219;SDS011;32961;51.936;4.788;2023-04-06T10:33:54;9.57;;;6.47;;
47219;SDS011;32961;51.936;4.788;2023-04-06T10:36:23;9.57;;;7.22;;
47219;SDS011;32961;51.936;4.788;2023-04-06T10:38:56;17.60;;;8.85;;
47219;SDS011;32961;51.936;4.788;2023-04-06T10:41:32;11.60;;;8.18;;
47219;SDS011;32961;51.936;4.788;2023-04-06T10:44:01;11.57;;;7.93;;
47219;SDS011;32961;51.936;4.788;2023-04-06T10:46:30;14.93;;;8.02;;
47219;SDS011;32961;51.936;4.788;2023-04-06T10:49:09;12.60;;;8.18;;
47219;SDS011;32961;51.936;4.788;2023-04-06T10:51:38;10.52;;;7.65;;
47219;SDS011;32961;51.936;4.788;2023-04-06T10:54:06;10.63;;;7.32;;
47219;SDS011;32961;51.936;4.788;2023-04-06T10:56:37;12.40;;;8.10;;
47219;SDS011;32961;51.936;4.788;2023-04-06T10:59:06;9.57;;;7.75;;
47219;SDS011;32961;51.936;4.788;2023-04-06T11:01:34;14.77;;;9.15;;
47219;SDS011;32961;51.936;4.788;2023-04-06T11:04:02;14.55;;;8.35;;
47219;SDS011;32961;51.936;4.788;2023-04-06T11:06:30;19.30;;;8.52;;
47219;SDS011;32961;51.936;4.788;2023-04-06T11:08:58;17.38;;;9.45;;
47219;SDS011;32961;51.936;4.788;2023-04-06T11:11:26;15.70;;;8.45;;
47219;SDS011;32961;51.936;4.788;2023-04-06T11:13:56;13.38;;;8.65;;
47219;SDS011;32961;51.936;4.788;2023-04-06T11:16:26;14.10;;;8.27;;
47219;SDS011;32961;51.936;4.788;2023-04-06T11:18:56;15.18;;;8.45;;
47219;SDS011;32961;51.936;4.788;2023-04-06T11:21:32;15.73;;;8.93;;
47219;SDS011;32961;51.936;4.788;2023-04-06T11:24:05;14.18;;;8.85;;
47219;SDS011;32961;51.936;4.788;2023-04-06T11:26:36;12.02;;;7.82;;
47219;SDS011;32961;51.936;4.788;2023-04-06T11:29:07;12.82;;;9.50;;
47219;SDS011;32961;51.936;4.788;2023-04-06T11:31:42;10.38;;;8.43;;
47219;SDS011;32961;51.936;4.788;2023-04-06T11:34:13;13.88;;;7.78;;
47219;SDS011;32961;51.936;4.788;2023-04-06T11:36:44;12.05;;;8.23;;
47219;SDS011;32961;51.936;4.788;2023-04-06T11:39:17;11.55;;;7.28;;
47219;SDS011;32961;51.936;4.788;2023-04-06T11:41:47;10.70;;;7.82;;
47219;SDS011;32961;51.936;4.788;2023-04-06T11:44:26;12.25;;;7.82;;
47219;SDS011;32961;51.936;4.788;2023-04-06T11:46:56;12.80;;;8.73;;
47219;SDS011;32961;51.936;4.788;2023-04-06T11:49:26;12.45;;;8.15;;
47219;SDS011;32961;51.936;4.788;2023-04-06T11:51:54;10.68;;;7.45;;
47219;SDS011;32961;51.936;4.788;2023-04-06T11:54:32;10.90;;;7.40;;
47219;SDS011;32961;51.936;4.788;2023-04-06T11:57:00;11.65;;;7.80;;
47219;SDS011;32961;51.936;4.788;2023-04-06T11:59:31;11.95;;;8.40;;
47219;SDS011;32961;51.936;4.788;2023-04-06T12:02:00;14.45;;;8.20;;
47219;SDS011;32961;51.936;4.788;2023-04-06T12:04:29;14.75;;;8.73;;
47219;SDS011;32961;51.936;4.788;2023-04-06T12:06:57;14.82;;;8.68;;
47219;SDS011;32961;51.936;4.788;2023-04-06T12:09:25;12.15;;;7.75;;
47219;SDS011;32961;51.936;4.788;2023-04-06T12:11:53;14.98;;;10.05;;
47219;SDS011;32961;51.936;4.788;2023-04-06T12:14:22;13.40;;;8.13;;
47219;SDS011;32961;51.936;4.788;2023-04-06T12:16:51;15.50;;;9.05;;
47219;SDS011;32961;51.936;4.788;2023-04-06T12:19:19;15.88;;;9.45;;
47219;SDS011;32961;51.936;4.788;2023-04-06T12:21:47;15.10;;;9.23;;
47219;SDS011;32961;51.936;4.788;2023-04-06T12:24:15;12.40;;;8.85;;
47219;SDS011;32961;51.936;4.788;2023-04-06T12:26:42;11.60;;;8.52;;
47219;SDS011;32961;51.936;4.788;2023-04-06T12:29:11;14.02;;;9.88;;
47219;SDS011;32961;51.936;4.788;2023-04-06T12:31:39;12.88;;;8.45;;
47219;SDS011;32961;51.936;4.788;2023-04-06T12:34:10;13.15;;;9.15;;
47219;SDS011;32961;51.936;4.788;2023-04-06T12:36:38;16.35;;;8.60;;
47219;SDS011;32961;51.936;4.788;2023-04-06T12:39:06;13.07;;;8.90;;
47219;SDS011;32961;51.936;4.788;2023-04-06T12:41:34;13.23;;;8.75;;
47219;SDS011;32961;51.936;4.788;2023-04-06T12:44:02;13.80;;;9.30;;
47219;SDS011;32961;51.936;4.788;2023-04-06T12:46:30;13.85;;;8.88;;
47219;SDS011;32961;51.936;4.788;2023-04-06T12:48:58;12.65;;;8.77;;
47219;SDS011;32961;51.936;4.788;2023-04-06T12:51:28;14.52;;;9.52;;
47219;SDS011;32961;51.936;4.788;2023-04-06T12:53:57;14.15;;;9.05;;
47219;SDS011;32961;51.936;4.788;2023-04-06T12:56:25;12.65;;;9.50;;
47219;SDS011;32961;51.936;4.788;2023-04-06T12:58:54;13.23;;;9.20;;
47219;SDS011;32961;51.936;4.788;2023-04-06T13:01:22;14.55;;;9.45;;
47219;SDS011;32961;51.936;4.788;2023-04-06T13:03:51;13.80;;;9.50;;
47219;SDS011;32961;51.936;4.788;2023-04-06T13:06:19;12.45;;;9.30;;
47219;SDS011;32961;51.936;4.788;2023-04-06T13:08:49;13.10;;;9.30;;
47219;SDS011;32961;51.936;4.788;2023-04-06T13:11:17;16.33;;;9.80;;
47219;SDS011;32961;51.936;4.788;2023-04-06T13:13:46;12.75;;;9.25;;
47219;SDS011;32961;51.936;4.788;2023-04-06T13:16:14;13.63;;;9.02;;
47219;SDS011;32961;51.936;4.788;2023-04-06T13:18:42;13.55;;;10.05;;
47219;SDS011;32961;51.936;4.788;2023-04-06T13:21:13;12.73;;;9.18;;
47219;SDS011;32961;51.936;4.788;2023-04-06T13:23:42;13.82;;;9.85;;
47219;SDS011;32961;51.936;4.788;2023-04-06T13:26:12;12.25;;;8.93;;
47219;SDS011;32961;51.936;4.788;2023-04-06T13:28:41;13.18;;;10.15;;
47219;SDS011;32961;51.936;4.788;2023-04-06T13:31:09;15.32;;;10.25;;
47219;SDS011;32961;51.936;4.788;2023-04-06T13:33:38;16.08;;;9.93;;
47219;SDS011;32961;51.936;4.788;2023-04-06T13:36:07;15.23;;;9.90;;
47219;SDS011;32961;51.936;4.788;2023-04-06T13:38:35;12.70;;;9.45;;
47219;SDS011;32961;51.936;4.788;2023-04-06T13:41:05;13.75;;;8.98;;
47219;SDS011;32961;51.936;4.788;2023-04-06T13:43:34;13.20;;;9.45;;
47219;SDS011;32961;51.936;4.788;2023-04-06T13:46:02;12.93;;;9.20;;
47219;SDS011;32961;51.936;4.788;2023-04-06T13:48:30;13.38;;;9.30;;
47219;SDS011;32961;51.936;4.788;2023-04-06T13:51:07;11.85;;;8.82;;
47219;SDS011;32961;51.936;4.788;2023-04-06T13:53:35;14.30;;;9.63;;
47219;SDS011;32961;51.936;4.788;2023-04-06T13:56:05;12.30;;;8.65;;
47219;SDS011;32961;51.936;4.788;2023-04-06T13:58:35;13.63;;;9.00;;
47219;SDS011;32961;51.936;4.788;2023-04-06T14:01:03;13.30;;;10.05;;
47219;SDS011;32961;51.936;4.788;2023-04-06T14:03:32;14.55;;;10.18;;
47219;SDS011;32961;51.936;4.788;2023-04-06T14:06:01;14.90;;;9.32;;
47219;SDS011;32961;51.936;4.788;2023-04-06T14:08:52;13.52;;;9.23;;
47219;SDS011;32961;51.936;4.788;2023-04-06T14:11:20;12.50;;;9.35;;
47219;SDS011;32961;51.936;4.788;2023-04-06T14:13:50;14.50;;;10.02;;
47219;SDS011;32961;51.936;4.788;2023-04-06T14:16:17;13.27;;;8.82;;
47219;SDS011;32961;51.936;4.788;2023-04-06T14:18:46;13.23;;;9.18;;
47219;SDS011;32961;51.936;4.788;2023-04-06T14:21:14;13.90;;;10.00;;
47219;SDS011;32961;51.936;4.788;2023-04-06T14:23:42;13.32;;;9.57;;
47219;SDS011;32961;51.936;4.788;2023-04-06T14:26:10;16.83;;;8.52;;
47219;SDS011;32961;51.936;4.788;2023-04-06T14:28:39;13.77;;;9.13;;
47219;SDS011;32961;51.936;4.788;2023-04-06T14:31:10;12.52;;;9.43;;
47219;SDS011;32961;51.936;4.788;2023-04-06T14:33:39;14.02;;;10.07;;
47219;SDS011;32961;51.936;4.788;2023-04-06T14:36:08;12.85;;;9.23;;
47219;SDS011;32961;51.936;4.788;2023-04-06T14:38:37;14.73;;;8.82;;
47219;SDS011;32961;51.936;4.788;2023-04-06T14:41:06;14.20;;;9.30;;